createdAt,value
2018-08-18T00:00:26.395Z,99.90
2018-08-18T00:02:56.104Z,99.90
2018-08-18T00:05:25.195Z,99.90
2018-08-18T00:07:54.310Z,99.90
2018-08-18T00:10:23.466Z,99.90
2018-08-18T00:12:52.724Z,99.90
2018-08-18T00:15:21.895Z,99.90
2018-08-18T00:17:51.056Z,99.90
2018-08-18T00:20:23.380Z,99.90
2018-08-18T00:22:52.743Z,99.90
2018-08-18T00:25:21.879Z,99.90
2018-08-18T00:27:51.043Z,99.90
2018-08-18T00:30:25.643Z,99.90
2018-08-18T00:32:54.960Z,99.90
2018-08-18T00:35:24.485Z,99.90
2018-08-18T00:37:53.684Z,99.90
2018-08-18T00:40:22.803Z,99.90
2018-08-18T00:42:51.882Z,99.90
2018-08-18T00:45:20.976Z,99.90
2018-08-18T00:47:50.973Z,99.90
2018-08-18T00:50:35.253Z,99.90
2018-08-18T00:53:05.896Z,99.90
2018-08-18T00:55:35.399Z,99.90
2018-08-18T00:58:05.186Z,99.90
2018-08-18T01:00:34.647Z,99.90
2018-08-18T01:03:03.763Z,99.90
2018-08-18T01:05:32.941Z,99.90
2018-08-18T01:08:02.190Z,99.90
2018-08-18T01:10:31.281Z,99.90
2018-08-18T01:13:00.489Z,99.90
2018-08-18T01:15:29.523Z,99.90
2018-08-18T01:17:58.664Z,99.90
2018-08-18T01:20:27.793Z,99.90
2018-08-18T01:22:59.915Z,99.90
2018-08-18T01:25:29.273Z,99.90
2018-08-18T01:27:59.384Z,99.90
2018-08-18T01:30:29.448Z,99.90
2018-08-18T01:32:58.559Z,99.90
2018-08-18T01:35:27.696Z,99.90
2018-08-18T01:37:56.906Z,99.90
2018-08-18T01:40:25.981Z,99.90
2018-08-18T01:42:55.042Z,99.90
2018-08-18T01:45:24.119Z,99.90
2018-08-18T01:47:53.196Z,99.90
2018-08-18T01:50:22.245Z,99.90
2018-08-18T01:52:51.305Z,99.90
2018-08-18T01:55:20.369Z,99.90
2018-08-18T01:57:49.612Z,99.90
2018-08-18T02:00:25.389Z,99.90
2018-08-18T02:02:54.747Z,99.90
2018-08-18T02:05:23.975Z,99.90
2018-08-18T02:07:53.116Z,99.90
2018-08-18T02:10:22.297Z,99.90
2018-08-18T02:13:00.888Z,99.90
2018-08-18T02:15:30.330Z,99.90
2018-08-18T02:17:59.447Z,99.90
2018-08-18T02:20:28.529Z,99.90
2018-08-18T02:22:57.635Z,99.90
2018-08-18T02:25:26.716Z,99.90
2018-08-18T02:27:55.865Z,99.90
2018-08-18T02:30:24.980Z,99.90
2018-08-18T02:32:54.093Z,99.90
2018-08-18T02:35:23.400Z,99.90
2018-08-18T02:37:52.644Z,99.90
2018-08-18T02:40:22.208Z,99.90
2018-08-18T02:42:51.285Z,99.90
2018-08-18T02:45:20.401Z,99.90
2018-08-18T02:48:04.178Z,99.90
2018-08-18T02:50:33.344Z,99.90
2018-08-18T02:53:07.155Z,99.90
2018-08-18T02:55:36.233Z,99.90
2018-08-18T02:58:05.344Z,99.90
2018-08-18T03:00:35.254Z,99.90
2018-08-18T03:03:04.508Z,99.90
2018-08-18T03:05:33.653Z,99.90
2018-08-18T03:08:02.780Z,99.90
2018-08-18T03:10:32.462Z,99.90
2018-08-18T03:13:01.548Z,99.90
2018-08-18T03:16:06.461Z,99.90
2018-08-18T03:18:43.420Z,99.90
2018-08-18T03:21:12.656Z,99.90
2018-08-18T03:23:53.436Z,99.90
2018-08-18T03:26:28.318Z,99.90
2018-08-18T03:28:57.693Z,99.90
2018-08-18T03:31:26.668Z,99.90
2018-08-18T03:33:55.761Z,99.90
2018-08-18T03:36:30.449Z,99.90
2018-08-18T03:39:00.088Z,99.90
2018-08-18T03:41:29.870Z,99.90
2018-08-18T03:43:58.992Z,99.90
2018-08-18T03:46:28.060Z,99.90
2018-08-18T03:48:57.159Z,99.90
2018-08-18T03:51:31.696Z,99.90
2018-08-18T03:54:01.834Z,99.90
2018-08-18T03:56:30.915Z,99.90
2018-08-18T03:59:00.195Z,99.90
2018-08-18T04:02:02.972Z,99.90
2018-08-18T04:04:37.288Z,99.90
2018-08-18T04:07:07.625Z,99.90
2018-08-18T04:09:38.091Z,99.90
2018-08-18T04:12:08.582Z,99.90
2018-08-18T04:14:40.333Z,99.90
2018-08-18T04:17:40.728Z,99.90
2018-08-18T04:20:10.032Z,99.90
2018-08-18T04:22:39.126Z,99.90
2018-08-18T04:25:08.979Z,99.90
2018-08-18T04:27:41.977Z,99.90
2018-08-18T04:30:13.388Z,99.90
2018-08-18T04:32:54.597Z,99.90
2018-08-18T04:35:25.054Z,99.90
2018-08-18T04:37:54.933Z,99.90
2018-08-18T04:40:24.504Z,99.90
2018-08-18T04:42:56.360Z,99.90
2018-08-18T04:45:25.747Z,99.90
2018-08-18T04:47:55.066Z,99.90
2018-08-18T04:50:24.220Z,99.90
2018-08-18T04:52:54.484Z,99.90
2018-08-18T04:55:23.686Z,99.90
2018-08-18T04:57:52.877Z,99.90
2018-08-18T05:00:22.114Z,99.90
2018-08-18T05:02:58.377Z,99.90
2018-08-18T05:05:32.037Z,99.90
2018-08-18T05:08:01.934Z,99.90
2018-08-18T05:10:31.039Z,99.90
2018-08-18T05:13:00.349Z,99.90
2018-08-18T05:15:29.549Z,99.90
2018-08-18T05:17:58.674Z,99.90
2018-08-18T05:20:28.215Z,99.90
2018-08-18T05:23:12.991Z,99.90
2018-08-18T05:25:42.327Z,99.90
2018-08-18T05:28:11.437Z,99.90
2018-08-18T05:30:40.540Z,99.90
2018-08-18T05:33:10.086Z,99.90
2018-08-18T05:35:39.187Z,99.90
2018-08-18T05:38:08.292Z,99.90
2018-08-18T05:40:37.404Z,99.90
2018-08-18T05:43:06.622Z,99.90
2018-08-18T05:45:35.753Z,99.90
2018-08-18T05:48:05.013Z,99.90
2018-08-18T05:50:34.083Z,99.90
2018-08-18T05:53:23.073Z,99.90
2018-08-18T05:55:52.425Z,99.90
2018-08-18T05:58:21.547Z,99.90
2018-08-18T06:00:55.129Z,99.90
2018-08-18T06:03:24.203Z,99.90
2018-08-18T06:05:53.366Z,99.90
2018-08-18T06:08:22.492Z,99.90
2018-08-18T06:10:51.664Z,99.90
2018-08-18T06:13:21.917Z,99.90
2018-08-18T06:16:06.500Z,99.90
2018-08-18T06:18:37.299Z,99.90
2018-08-18T06:21:07.399Z,99.90
2018-08-18T06:23:37.426Z,99.90
2018-08-18T06:26:06.960Z,99.90
2018-08-18T06:28:36.054Z,99.90
2018-08-18T06:31:05.212Z,99.90
2018-08-18T06:33:34.327Z,99.90
2018-08-18T06:36:03.828Z,99.90
2018-08-18T06:38:33.236Z,99.90
2018-08-18T06:41:03.155Z,99.90
2018-08-18T06:43:33.577Z,99.90
2018-08-18T06:46:03.172Z,99.90
2018-08-18T06:48:33.912Z,99.90
2018-08-18T06:51:03.208Z,99.90
2018-08-18T06:53:37.663Z,99.90
2018-08-18T06:56:07.453Z,99.90
2018-08-18T06:58:36.749Z,99.90
2018-08-18T07:01:06.652Z,99.90
2018-08-18T07:03:37.552Z,99.90
2018-08-18T07:06:07.476Z,99.90
2018-08-18T07:08:42.044Z,99.90
2018-08-18T07:11:11.870Z,99.90
2018-08-18T07:13:41.758Z,99.90
2018-08-18T07:16:10.869Z,99.90
2018-08-18T07:18:39.956Z,99.90
2018-08-18T07:21:09.135Z,99.90
2018-08-18T07:23:38.221Z,99.90
2018-08-18T07:26:07.696Z,99.90
2018-08-18T07:28:36.925Z,99.90
2018-08-18T07:31:06.173Z,99.90
2018-08-18T07:33:35.289Z,99.90
2018-08-18T07:36:04.428Z,99.90
2018-08-18T07:38:33.554Z,99.90
2018-08-18T07:41:02.695Z,99.90
2018-08-18T07:43:33.190Z,99.90
2018-08-18T07:46:04.039Z,99.90
2018-08-18T07:48:33.161Z,99.90
2018-08-18T07:51:02.394Z,99.90
2018-08-18T07:53:31.636Z,99.90
2018-08-18T07:56:00.756Z,99.90
2018-08-18T07:58:29.970Z,99.20
2018-08-18T08:00:59.820Z,95.70
2018-08-18T08:03:28.932Z,98.20
2018-08-18T08:05:57.984Z,96.90
2018-08-18T08:08:33.866Z,91.10
2018-08-18T08:11:17.925Z,93.30
2018-08-18T08:13:47.042Z,92.00
2018-08-18T08:16:16.149Z,90.30
2018-08-18T08:18:45.259Z,89.50
2018-08-18T08:21:14.404Z,85.40
2018-08-18T08:23:43.509Z,86.50
2018-08-18T08:26:12.633Z,89.10
2018-08-18T08:28:41.686Z,84.20
2018-08-18T08:31:10.817Z,74.40
2018-08-18T08:33:39.902Z,78.40
2018-08-18T08:36:12.362Z,76.50
2018-08-18T08:39:03.203Z,71.80
2018-08-18T08:41:33.177Z,76.50
2018-08-18T08:44:02.256Z,72.60
2018-08-18T08:46:31.330Z,72.00
2018-08-18T08:49:01.652Z,74.90
2018-08-18T08:51:30.784Z,75.00
2018-08-18T08:54:00.444Z,66.30
2018-08-18T08:56:35.227Z,67.40
2018-08-18T08:59:04.819Z,69.20
2018-08-18T09:01:34.388Z,63.30
2018-08-18T09:04:04.292Z,66.10
2018-08-18T09:06:35.082Z,69.30
2018-08-18T09:09:06.195Z,60.30
2018-08-18T09:11:35.236Z,59.00
2018-08-18T09:14:06.624Z,58.00
2018-08-18T09:16:35.718Z,55.50
2018-08-18T09:19:04.862Z,56.10
2018-08-18T09:21:40.425Z,58.90
2018-08-18T09:24:09.551Z,60.60
2018-08-18T09:26:44.159Z,58.70
2018-08-18T09:29:14.564Z,57.60
2018-08-18T09:31:44.636Z,56.40
2018-08-18T09:34:15.693Z,56.60
2018-08-18T09:36:46.045Z,55.40
2018-08-18T09:39:22.613Z,58.40
2018-08-18T09:41:52.004Z,57.80
2018-08-18T09:44:28.401Z,56.30
2018-08-18T09:46:58.214Z,56.20
2018-08-18T09:49:29.272Z,52.40
2018-08-18T09:51:59.415Z,54.10
2018-08-18T09:54:29.092Z,56.50
2018-08-18T09:56:58.967Z,54.70
2018-08-18T09:59:28.940Z,52.50
2018-08-18T10:01:58.321Z,55.10
2018-08-18T10:04:27.877Z,56.50
2018-08-18T10:06:57.163Z,59.10
2018-08-18T10:09:26.325Z,55.20
2018-08-18T10:11:55.600Z,54.30
2018-08-18T10:14:31.503Z,56.90
2018-08-18T10:17:00.966Z,52.40
2018-08-18T10:19:32.639Z,54.70
2018-08-18T10:22:02.399Z,54.60
2018-08-18T10:24:31.491Z,51.40
2018-08-18T10:27:05.264Z,49.50
2018-08-18T10:29:34.532Z,48.40
2018-08-18T10:32:03.731Z,51.70
2018-08-18T10:34:33.994Z,51.50
2018-08-18T10:37:06.207Z,51.50
2018-08-18T10:39:36.663Z,48.40
2018-08-18T10:42:08.574Z,49.00
2018-08-18T10:44:37.876Z,52.00
2018-08-18T10:47:11.608Z,49.30
2018-08-18T10:49:52.238Z,50.60
2018-08-18T10:52:33.884Z,50.80
2018-08-18T10:55:06.577Z,49.80
2018-08-18T10:57:48.095Z,47.60
2018-08-18T11:00:19.492Z,46.40
2018-08-18T11:02:50.072Z,47.50
2018-08-18T11:05:19.666Z,46.70
2018-08-18T11:07:55.752Z,46.60
2018-08-18T11:10:29.660Z,48.10
2018-08-18T11:12:59.057Z,46.10
2018-08-18T11:15:28.415Z,46.60
2018-08-18T11:17:58.008Z,47.50
2018-08-18T11:20:28.566Z,45.40
2018-08-18T11:23:02.303Z,44.20
2018-08-18T11:25:34.623Z,44.20
2018-08-18T11:28:04.141Z,42.70
2018-08-18T11:30:33.333Z,42.20
2018-08-18T11:33:02.956Z,43.50
2018-08-18T11:35:33.163Z,42.20
2018-08-18T11:38:08.868Z,42.90
2018-08-18T11:40:39.743Z,39.70
2018-08-18T11:43:10.522Z,38.50
2018-08-18T11:45:40.419Z,38.90
2018-08-18T11:48:21.232Z,39.30
2018-08-18T11:50:51.402Z,38.50
2018-08-18T11:53:20.480Z,40.40
2018-08-18T11:55:49.704Z,38.70
2018-08-18T11:58:20.951Z,39.20
2018-08-18T12:00:52.735Z,38.60
2018-08-18T12:03:24.336Z,38.40
2018-08-18T12:05:54.558Z,39.30
2018-08-18T12:08:29.145Z,41.10
2018-08-18T12:10:59.919Z,40.20
2018-08-18T12:13:34.604Z,41.70
2018-08-18T12:16:08.376Z,43.90
2018-08-18T12:18:39.791Z,42.80
2018-08-18T12:21:09.226Z,41.00
2018-08-18T12:23:39.568Z,39.10
2018-08-18T12:26:11.889Z,40.60
2018-08-18T12:28:46.403Z,38.70
2018-08-18T12:31:17.169Z,37.30
2018-08-18T12:33:47.106Z,37.30
2018-08-18T12:36:16.278Z,37.80
2018-08-18T12:38:47.023Z,38.50
2018-08-18T12:41:16.193Z,37.20
2018-08-18T12:43:54.340Z,37.10
2018-08-18T12:46:28.553Z,37.20
2018-08-18T12:48:57.839Z,36.70
2018-08-18T12:51:26.896Z,37.10
2018-08-18T12:53:57.285Z,38.30
2018-08-18T12:56:27.662Z,35.20
2018-08-18T12:58:56.849Z,33.90
2018-08-18T13:01:45.097Z,34.20
2018-08-18T13:04:15.886Z,34.60
2018-08-18T13:06:46.360Z,35.50
2018-08-18T13:09:16.957Z,35.90
2018-08-18T13:11:47.343Z,35.50
2018-08-18T13:14:17.797Z,34.80
2018-08-18T13:16:47.053Z,33.90
2018-08-18T13:19:18.441Z,32.90
2018-08-18T13:21:47.596Z,33.40
2018-08-18T13:24:16.804Z,32.00
2018-08-18T13:26:45.780Z,32.10
2018-08-18T13:29:14.921Z,32.80
2018-08-18T13:31:44.676Z,32.50
2018-08-18T13:34:14.985Z,31.70
2018-08-18T13:36:45.132Z,31.30
2018-08-18T13:39:22.055Z,31.70
2018-08-18T13:41:51.236Z,31.40
2018-08-18T13:44:27.429Z,31.70
2018-08-18T13:46:56.574Z,31.00
2018-08-18T13:49:26.502Z,29.90
2018-08-18T13:51:55.605Z,30.20
2018-08-18T13:54:24.688Z,30.00
2018-08-18T13:56:53.747Z,31.10
2018-08-18T13:59:38.668Z,29.70
2018-08-18T14:02:08.398Z,30.00
2018-08-18T14:04:40.088Z,30.00
2018-08-18T14:07:09.766Z,30.20
2018-08-18T14:09:41.599Z,30.20
2018-08-18T14:12:17.849Z,29.30
2018-08-18T14:14:48.080Z,29.20
2018-08-18T14:17:19.276Z,30.30
2018-08-18T14:19:48.949Z,31.20
2018-08-18T14:22:18.731Z,31.40
2018-08-18T14:24:47.807Z,30.60
2018-08-18T14:27:19.091Z,30.40
2018-08-18T14:29:48.128Z,31.40
2018-08-18T14:32:25.364Z,32.40
2018-08-18T14:35:07.080Z,31.90
2018-08-18T14:37:40.547Z,31.50
2018-08-18T14:40:11.845Z,31.70
2018-08-18T14:42:41.002Z,31.60
2018-08-18T14:45:13.784Z,31.40
2018-08-18T14:47:42.947Z,31.60
2018-08-18T14:50:17.825Z,30.00
2018-08-18T14:52:46.932Z,30.60
2018-08-18T14:55:16.583Z,30.30
2018-08-18T14:58:02.358Z,30.50
2018-08-18T15:00:32.109Z,30.70
2018-08-18T15:03:01.372Z,31.90
2018-08-18T15:05:30.474Z,31.70
2018-08-18T15:07:59.976Z,31.80
2018-08-18T15:10:37.753Z,32.20
2018-08-18T15:13:07.696Z,32.60
2018-08-18T15:15:37.138Z,31.60
2018-08-18T15:18:08.958Z,31.90
2018-08-18T15:20:39.217Z,32.10
2018-08-18T15:23:09.331Z,32.10
2018-08-18T15:25:39.407Z,31.30
2018-08-18T15:28:09.736Z,31.70
2018-08-18T15:30:41.340Z,31.00
2018-08-18T15:33:11.343Z,31.70
2018-08-18T15:35:40.995Z,30.90
2018-08-18T15:38:10.776Z,31.70
2018-08-18T15:40:40.037Z,31.60
2018-08-18T15:43:09.176Z,31.70
2018-08-18T15:46:00.364Z,31.20
2018-08-18T15:48:29.752Z,31.50
2018-08-18T15:50:58.971Z,32.10
2018-08-18T15:53:57.524Z,32.10
2018-08-18T15:56:27.612Z,31.00
2018-08-18T15:58:57.559Z,31.30
2018-08-18T16:01:29.148Z,31.40
2018-08-18T16:03:59.742Z,31.20
2018-08-18T16:06:28.825Z,31.30
2018-08-18T16:08:57.920Z,32.00
2018-08-18T16:11:27.121Z,32.30
2018-08-18T16:13:56.262Z,31.80
2018-08-18T16:16:25.330Z,31.50
2018-08-18T16:19:00.669Z,32.10
2018-08-18T16:21:32.169Z,31.60
2018-08-18T16:24:02.310Z,31.50
2018-08-18T16:26:31.441Z,31.90
2018-08-18T16:29:00.564Z,31.50
2018-08-18T16:31:29.716Z,31.50
2018-08-18T16:33:58.800Z,31.80
2018-08-18T16:36:32.275Z,31.60
2018-08-18T16:39:07.992Z,32.00
2018-08-18T16:41:37.411Z,32.10
2018-08-18T16:44:06.493Z,31.70
2018-08-18T16:46:35.592Z,32.50
2018-08-18T16:49:04.668Z,32.60
2018-08-18T16:51:33.768Z,32.50
2018-08-18T16:54:18.205Z,32.70
2018-08-18T16:56:47.540Z,33.30
2018-08-18T16:59:16.632Z,33.50
2018-08-18T17:01:45.776Z,33.10
2018-08-18T17:04:23.076Z,32.40
2018-08-18T17:06:52.318Z,33.30
2018-08-18T17:09:33.782Z,33.00
2018-08-18T17:12:28.397Z,33.00
2018-08-18T17:14:57.490Z,33.80
2018-08-18T17:17:26.967Z,34.70
2018-08-18T17:19:56.047Z,35.10
2018-08-18T17:22:25.080Z,34.90
2018-08-18T17:24:54.162Z,35.20
2018-08-18T17:27:23.288Z,35.30
2018-08-18T17:29:53.064Z,35.50
2018-08-18T17:32:22.217Z,36.00
2018-08-18T17:34:51.320Z,35.60
2018-08-18T17:37:20.439Z,36.10
2018-08-18T17:39:49.701Z,36.40
2018-08-18T17:42:18.836Z,36.60
2018-08-18T17:44:47.927Z,36.70
2018-08-18T17:47:17.128Z,35.80
2018-08-18T17:49:52.159Z,36.10
2018-08-18T17:52:21.499Z,36.80
2018-08-18T17:55:04.706Z,36.90
2018-08-18T17:57:34.335Z,36.90
2018-08-18T18:00:09.242Z,37.60
2018-08-18T18:02:43.733Z,37.90
2018-08-18T18:05:12.876Z,38.10
2018-08-18T18:07:42.261Z,38.70
2018-08-18T18:10:11.316Z,39.40
2018-08-18T18:12:40.470Z,40.20
2018-08-18T18:15:46.095Z,40.70
2018-08-18T18:18:17.531Z,41.40
2018-08-18T18:20:47.989Z,42.30
2018-08-18T18:23:17.768Z,42.40
2018-08-18T18:25:46.777Z,42.70
2018-08-18T18:28:15.866Z,43.30
2018-08-18T18:30:44.976Z,43.70
2018-08-18T18:33:14.063Z,44.50
2018-08-18T18:35:43.139Z,44.40
2018-08-18T18:38:12.187Z,44.50
2018-08-18T18:40:42.600Z,45.00
2018-08-18T18:43:12.094Z,44.60
2018-08-18T18:45:41.289Z,45.10
2018-08-18T18:48:13.036Z,45.70
2018-08-18T18:50:44.929Z,46.00
2018-08-18T18:53:14.327Z,45.90
2018-08-18T18:55:51.840Z,47.60
2018-08-18T18:58:21.292Z,47.60
2018-08-18T19:01:06.259Z,47.80
2018-08-18T19:03:35.502Z,49.30
2018-08-18T19:06:04.616Z,48.90
2018-08-18T19:08:36.758Z,50.30
2018-08-18T19:11:05.825Z,50.60
2018-08-18T19:13:35.044Z,49.80
2018-08-18T19:16:04.210Z,51.20
2018-08-18T19:18:33.206Z,51.50
2018-08-18T19:21:02.244Z,51.90
2018-08-18T19:23:32.459Z,52.00
2018-08-18T19:26:01.543Z,53.20
2018-08-18T19:28:30.714Z,52.40
2018-08-18T19:30:59.810Z,52.70
2018-08-18T19:33:28.997Z,53.90
2018-08-18T19:35:58.198Z,56.40
2018-08-18T19:38:27.291Z,58.50
2018-08-18T19:40:56.591Z,61.90
2018-08-18T19:43:26.720Z,63.50
2018-08-18T19:45:56.548Z,66.70
2018-08-18T19:48:27.094Z,69.50
2018-08-18T19:51:01.679Z,70.10
2018-08-18T19:53:35.348Z,71.40
2018-08-18T19:56:08.508Z,72.30
2018-08-18T19:58:37.706Z,73.20
2018-08-18T20:01:06.927Z,69.10
2018-08-18T20:03:36.133Z,71.60
2018-08-18T20:06:09.447Z,66.40
2018-08-18T20:08:38.800Z,63.30
2018-08-18T20:11:07.902Z,62.10
2018-08-18T20:13:36.912Z,63.50
2018-08-18T20:16:06.404Z,68.90
2018-08-18T20:18:35.583Z,71.10
2018-08-18T20:21:04.543Z,78.40
2018-08-18T20:23:33.840Z,80.50
2018-08-18T20:26:02.896Z,80.40
2018-08-18T20:28:31.972Z,84.00
2018-08-18T20:31:01.058Z,87.60
2018-08-18T20:33:30.115Z,86.80
2018-08-18T20:36:00.203Z,89.60
2018-08-18T20:38:33.698Z,90.10
2018-08-18T20:41:02.767Z,90.70
2018-08-18T20:43:31.923Z,91.70
2018-08-18T20:46:01.092Z,92.50
2018-08-18T20:48:30.130Z,93.40
2018-08-18T20:50:59.210Z,94.00
2018-08-18T20:53:28.302Z,94.30
2018-08-18T20:55:59.135Z,94.90
2018-08-18T20:58:28.679Z,94.80
2018-08-18T21:00:57.791Z,94.70
2018-08-18T21:03:44.496Z,94.20
2018-08-18T21:06:14.276Z,94.50
2018-08-18T21:08:43.332Z,94.60
2018-08-18T21:11:12.403Z,95.30
2018-08-18T21:13:41.614Z,95.30
2018-08-18T21:16:10.797Z,95.50
2018-08-18T21:18:39.860Z,96.30
2018-08-18T21:21:43.233Z,96.40
2018-08-18T21:24:12.483Z,96.50
2018-08-18T21:26:41.540Z,96.70
2018-08-18T21:29:10.613Z,97.10
2018-08-18T21:31:40.064Z,97.70
2018-08-18T21:34:09.172Z,98.00
2018-08-18T21:36:38.247Z,98.40
2018-08-18T21:39:09.189Z,98.80
2018-08-18T21:41:40.126Z,99.20
2018-08-18T21:44:11.188Z,99.40
2018-08-18T21:46:40.857Z,99.90
2018-08-18T21:49:10.569Z,99.90
2018-08-18T21:51:39.658Z,99.90
2018-08-18T21:54:08.763Z,99.90
2018-08-18T21:56:39.281Z,99.90
2018-08-18T21:59:10.169Z,99.90
2018-08-18T22:01:39.291Z,99.90
2018-08-18T22:04:08.962Z,99.90
2018-08-18T22:06:38.057Z,99.90
2018-08-18T22:09:20.159Z,99.90
2018-08-18T22:11:49.350Z,99.90
2018-08-18T22:14:18.960Z,99.90
2018-08-18T22:16:53.367Z,99.90
2018-08-18T22:19:23.100Z,99.90
2018-08-18T22:21:52.295Z,99.90
2018-08-18T22:24:21.780Z,99.90
2018-08-18T22:26:51.106Z,99.90
2018-08-18T22:29:24.410Z,99.90
2018-08-18T22:31:53.663Z,99.90
2018-08-18T22:34:23.063Z,99.90
2018-08-18T22:36:56.084Z,99.90
2018-08-18T22:39:25.397Z,99.90
2018-08-18T22:41:54.525Z,99.90
2018-08-18T22:44:24.277Z,99.90
2018-08-18T22:46:53.772Z,99.90
2018-08-18T22:49:22.980Z,99.90
2018-08-18T22:51:52.080Z,99.90
2018-08-18T22:54:21.273Z,99.90
2018-08-18T22:56:55.708Z,99.90
2018-08-18T22:59:25.003Z,99.90
2018-08-18T23:01:54.102Z,99.90
2018-08-18T23:04:30.096Z,99.90
2018-08-18T23:06:59.939Z,99.90
2018-08-18T23:09:29.845Z,99.90
2018-08-18T23:11:59.817Z,99.90
2018-08-18T23:14:31.681Z,99.90
2018-08-18T23:17:01.230Z,99.90
2018-08-18T23:19:31.556Z,99.90
2018-08-18T23:22:01.065Z,99.90
2018-08-18T23:24:34.667Z,99.90
2018-08-18T23:27:04.044Z,99.90
2018-08-18T23:29:33.244Z,99.90
2018-08-18T23:32:16.192Z,99.90
2018-08-18T23:34:45.525Z,99.90
2018-08-18T23:37:20.030Z,99.90
2018-08-18T23:39:53.031Z,99.90
2018-08-18T23:42:23.644Z,99.90
2018-08-18T23:44:52.761Z,99.90
2018-08-18T23:47:22.479Z,99.90
2018-08-18T23:49:51.796Z,99.90
2018-08-18T23:52:21.040Z,99.90
2018-08-18T23:54:51.017Z,99.90
2018-08-18T23:57:20.171Z,99.90
2018-08-18T23:59:49.844Z,99.90
